createdAt,value
2022-09-03T00:03:02.573Z,99.84
2022-09-03T00:06:02.764Z,100.00
2022-09-03T00:08:41.486Z,100.00
2022-09-03T00:11:22.327Z,99.94
2022-09-03T00:14:12.453Z,99.52
2022-09-03T00:16:57.165Z,99.18
2022-09-03T00:19:35.708Z,98.92
2022-09-03T00:22:13.576Z,99.76
2022-09-03T00:24:44.422Z,100.00
2022-09-03T00:27:19.253Z,99.71
2022-09-03T00:29:52.784Z,99.52
2022-09-03T00:32:48.101Z,99.75
2022-09-03T00:35:43.807Z,100.00
2022-09-03T00:38:12.897Z,99.92
2022-09-03T00:41:17.633Z,99.75
2022-09-03T00:44:15.423Z,99.36
2022-09-03T00:46:53.408Z,98.75
2022-09-03T00:49:37.648Z,99.28
2022-09-03T00:52:46.080Z,99.90
2022-09-03T00:55:42.508Z,100.00
2022-09-03T00:58:22.851Z,100.00
2022-09-03T01:00:53.375Z,100.00
2022-09-03T01:03:42.923Z,100.00
2022-09-03T01:06:40.566Z,100.00
2022-09-03T01:09:12.812Z,100.00
2022-09-03T01:12:02.433Z,100.00
2022-09-03T01:14:49.927Z,100.00
2022-09-03T01:17:40.647Z,100.00
2022-09-03T01:20:31.031Z,100.00
2022-09-03T01:23:36.663Z,100.00
2022-09-03T01:26:34.115Z,100.00
2022-09-03T01:29:26.370Z,100.00
2022-09-03T01:32:13.083Z,100.00
2022-09-03T01:35:04.586Z,100.00
2022-09-03T01:38:03.269Z,100.00
2022-09-03T01:41:23.047Z,100.00
2022-09-03T01:44:17.364Z,100.00
2022-09-03T01:46:50.622Z,100.00
2022-09-03T01:49:36.950Z,100.00
2022-09-03T01:52:20.009Z,100.00
2022-09-03T01:55:02.275Z,100.00
2022-09-03T01:57:46.962Z,100.00
2022-09-03T02:00:20.685Z,100.00
2022-09-03T02:02:51.950Z,100.00
2022-09-03T02:05:27.450Z,100.00
2022-09-03T02:08:11.793Z,100.00
2022-09-03T02:10:54.605Z,100.00
2022-09-03T02:13:29.833Z,100.00
2022-09-03T02:16:07.048Z,100.00
2022-09-03T02:18:49.276Z,100.00
2022-09-03T02:21:25.886Z,100.00
2022-09-03T02:23:56.449Z,100.00
2022-09-03T02:26:27.582Z,100.00
2022-09-03T02:28:59.055Z,100.00
2022-09-03T02:31:30.578Z,100.00
2022-09-03T02:34:02.273Z,100.00
2022-09-03T02:36:37.159Z,100.00
2022-09-03T02:39:08.993Z,100.00
2022-09-03T02:41:42.420Z,100.00
2022-09-03T02:44:32.900Z,100.00
2022-09-03T02:47:05.889Z,100.00
2022-09-03T02:49:35.890Z,100.00
2022-09-03T02:52:13.371Z,100.00
2022-09-03T02:54:45.882Z,100.00
2022-09-03T02:57:20.092Z,100.00
2022-09-03T02:59:57.590Z,100.00
2022-09-03T03:02:28.101Z,100.00
2022-09-03T03:04:58.018Z,100.00
2022-09-03T03:07:32.614Z,100.00
2022-09-03T03:10:02.321Z,100.00
2022-09-03T03:12:32.356Z,100.00
2022-09-03T03:15:02.305Z,100.00
2022-09-03T03:17:32.246Z,100.00
2022-09-03T03:20:05.519Z,100.00
2022-09-03T03:22:36.273Z,100.00
2022-09-03T03:25:06.449Z,100.00
2022-09-03T03:27:36.797Z,100.00
2022-09-03T03:30:10.295Z,100.00
2022-09-03T03:32:40.412Z,100.00
2022-09-03T03:35:09.932Z,100.00
2022-09-03T03:37:40.227Z,100.00
2022-09-03T03:40:10.905Z,100.00
2022-09-03T03:42:40.414Z,100.00
2022-09-03T03:45:10.837Z,100.00
2022-09-03T03:47:40.058Z,100.00
2022-09-03T03:50:09.479Z,100.00
2022-09-03T03:52:38.760Z,100.00
2022-09-03T03:55:08.389Z,100.00
2022-09-03T03:57:37.679Z,100.00
2022-09-03T04:00:07.600Z,100.00
2022-09-03T04:02:43.924Z,100.00
2022-09-03T04:05:13.157Z,100.00
2022-09-03T04:07:44.832Z,100.00
2022-09-03T04:10:16.028Z,100.00
2022-09-03T04:12:45.148Z,100.00
2022-09-03T04:15:14.649Z,100.00
2022-09-03T04:17:44.670Z,100.00
2022-09-03T04:20:14.379Z,100.00
2022-09-03T04:22:43.594Z,100.00
2022-09-03T04:25:13.295Z,100.00
2022-09-03T04:27:42.708Z,100.00
2022-09-03T04:30:12.499Z,100.00
2022-09-03T04:32:54.006Z,100.00
2022-09-03T04:35:34.407Z,100.00
2022-09-03T04:38:07.542Z,100.00
2022-09-03T04:40:38.713Z,100.00
2022-09-03T04:43:07.766Z,100.00
2022-09-03T04:45:37.258Z,100.00
2022-09-03T04:48:10.665Z,100.00
2022-09-03T04:50:39.899Z,100.00
2022-09-03T04:53:08.723Z,100.00
2022-09-03T04:55:39.525Z,100.00
2022-09-03T04:58:08.879Z,100.00
2022-09-03T05:00:38.502Z,100.00
2022-09-03T05:03:07.574Z,100.00
2022-09-03T05:05:36.382Z,100.00
2022-09-03T05:08:06.201Z,100.00
2022-09-03T05:10:35.407Z,100.00
2022-09-03T05:13:06.481Z,100.00
2022-09-03T05:15:35.852Z,100.00
2022-09-03T05:18:04.568Z,100.00
2022-09-03T05:20:33.529Z,100.00
2022-09-03T05:23:06.512Z,100.00
2022-09-03T05:25:35.216Z,100.00
2022-09-03T05:28:04.387Z,100.00
2022-09-03T05:30:33.179Z,100.00
2022-09-03T05:33:04.530Z,100.00
2022-09-03T05:35:34.655Z,100.00
2022-09-03T05:38:04.048Z,100.00
2022-09-03T05:40:34.260Z,100.00
2022-09-03T05:43:07.874Z,100.00
2022-09-03T05:45:37.559Z,100.00
2022-09-03T05:48:06.533Z,100.00
2022-09-03T05:50:35.572Z,100.00
2022-09-03T05:53:04.763Z,100.00
2022-09-03T05:55:34.470Z,99.98
2022-09-03T05:58:03.471Z,99.62
2022-09-03T06:00:32.352Z,99.46
2022-09-03T06:03:01.866Z,100.00
2022-09-03T06:05:31.054Z,99.63
2022-09-03T06:08:00.359Z,99.94
2022-09-03T06:10:38.722Z,99.97
2022-09-03T06:13:11.040Z,100.00
2022-09-03T06:15:40.075Z,99.75
2022-09-03T06:18:08.823Z,99.54
2022-09-03T06:20:38.015Z,98.87
2022-09-03T06:23:07.213Z,98.53
2022-09-03T06:25:36.514Z,99.20
2022-09-03T06:28:09.089Z,99.17
2022-09-03T06:30:37.741Z,99.73
2022-09-03T06:33:06.464Z,99.75
2022-09-03T06:35:42.720Z,99.25
2022-09-03T06:38:13.153Z,99.71
2022-09-03T06:40:41.739Z,99.15
2022-09-03T06:43:11.679Z,99.39
2022-09-03T06:45:40.360Z,100.00
2022-09-03T06:48:09.543Z,99.90
2022-09-03T06:50:38.186Z,100.00
2022-09-03T06:53:07.016Z,100.00
2022-09-03T06:55:40.249Z,99.94
2022-09-03T06:58:08.997Z,99.51
2022-09-03T07:00:37.987Z,99.25
2022-09-03T07:03:07.380Z,99.20
2022-09-03T07:05:36.066Z,99.34
2022-09-03T07:08:04.757Z,99.06
2022-09-03T07:10:37.702Z,98.86
2022-09-03T07:13:09.304Z,98.97
2022-09-03T07:15:38.246Z,99.14
2022-09-03T07:18:06.984Z,98.91
2022-09-03T07:20:36.676Z,98.63
2022-09-03T07:23:05.567Z,98.45
2022-09-03T07:25:34.278Z,98.35
2022-09-03T07:28:07.110Z,98.18
2022-09-03T07:30:36.129Z,98.05
2022-09-03T07:33:07.689Z,98.57
2022-09-03T07:35:37.588Z,98.57
2022-09-03T07:38:06.526Z,98.96
2022-09-03T07:40:35.478Z,98.72
2022-09-03T07:43:04.896Z,98.54
2022-09-03T07:45:33.978Z,98.06
2022-09-03T07:48:03.191Z,98.28
2022-09-03T07:50:37.974Z,97.67
2022-09-03T07:53:06.793Z,97.84
2022-09-03T07:55:36.278Z,98.08
2022-09-03T07:58:05.061Z,97.90
2022-09-03T08:00:34.354Z,97.59
2022-09-03T08:03:08.583Z,97.80
2022-09-03T08:05:37.701Z,97.57
2022-09-03T08:08:08.109Z,97.48
2022-09-03T08:10:38.631Z,97.24
2022-09-03T08:13:08.379Z,97.39
2022-09-03T08:15:41.041Z,97.38
2022-09-03T08:18:12.805Z,97.56
2022-09-03T08:20:41.790Z,97.84
2022-09-03T08:23:10.889Z,98.24
2022-09-03T08:25:39.788Z,98.35
2022-09-03T08:28:08.633Z,98.20
2022-09-03T08:30:38.885Z,98.27
2022-09-03T08:33:09.006Z,98.46
2022-09-03T08:35:39.967Z,98.92
2022-09-03T08:38:10.904Z,99.12
2022-09-03T08:40:39.855Z,99.92
2022-09-03T08:43:19.174Z,99.94
2022-09-03T08:45:49.771Z,99.41
2022-09-03T08:48:25.702Z,98.90
2022-09-03T08:51:00.204Z,98.45
2022-09-03T08:53:35.728Z,97.80
2022-09-03T08:56:11.134Z,97.81
2022-09-03T08:58:44.242Z,97.55
2022-09-03T09:01:26.487Z,97.23
2022-09-03T09:04:12.926Z,97.13
2022-09-03T09:06:47.729Z,96.64
2022-09-03T09:09:34.256Z,96.65
2022-09-03T09:12:21.496Z,96.54
2022-09-03T09:15:14.665Z,96.78
2022-09-03T09:18:00.714Z,96.86
2022-09-03T09:20:35.700Z,96.93
2022-09-03T09:23:13.152Z,97.34
2022-09-03T09:25:52.161Z,97.20
2022-09-03T09:28:23.657Z,97.23
2022-09-03T09:30:57.093Z,97.54
2022-09-03T09:33:25.994Z,97.32
2022-09-03T09:35:56.423Z,97.25
2022-09-03T09:38:33.812Z,97.27
2022-09-03T09:41:11.584Z,96.96
2022-09-03T09:43:41.323Z,96.31
2022-09-03T09:46:14.422Z,96.40
2022-09-03T09:49:11.395Z,96.58
2022-09-03T09:51:43.383Z,96.57
2022-09-03T09:54:22.351Z,96.54
2022-09-03T09:57:04.271Z,96.66
2022-09-03T09:59:37.439Z,96.32
2022-09-03T10:02:29.150Z,96.43
2022-09-03T10:05:14.079Z,96.03
2022-09-03T10:08:01.628Z,96.40
2022-09-03T10:10:45.498Z,96.12
2022-09-03T10:13:36.190Z,96.06
2022-09-03T10:16:17.044Z,96.12
2022-09-03T10:19:25.339Z,95.96
2022-09-03T10:22:19.690Z,95.95
2022-09-03T10:25:10.175Z,95.90
2022-09-03T10:27:41.026Z,95.83
2022-09-03T10:30:16.617Z,95.82
2022-09-03T10:33:07.868Z,95.57
2022-09-03T10:35:47.435Z,95.86
2022-09-03T10:38:33.707Z,95.57
2022-09-03T10:41:35.885Z,95.43
2022-09-03T10:44:41.535Z,96.50
2022-09-03T10:47:26.781Z,95.70
2022-09-03T10:50:30.902Z,95.21
2022-09-03T10:53:19.591Z,95.08
2022-09-03T10:55:59.168Z,95.32
2022-09-03T10:58:56.320Z,95.82
2022-09-03T11:01:43.390Z,95.29
2022-09-03T11:04:39.300Z,95.00
2022-09-03T11:07:13.933Z,94.55
2022-09-03T11:09:52.674Z,94.09
2022-09-03T11:12:31.059Z,93.72
2022-09-03T12:25:51.198Z,92.16
2022-09-03T12:28:25.475Z,91.90
2022-09-03T12:30:54.725Z,91.88
2022-09-03T12:33:31.248Z,91.75
2022-09-03T12:36:03.262Z,92.47
2022-09-03T12:39:00.760Z,91.00
2022-09-03T12:41:33.486Z,89.63
2022-09-03T12:44:07.041Z,88.34
2022-09-03T12:46:36.620Z,86.73
2022-09-03T12:52:09.030Z,86.96
2022-09-03T12:54:50.705Z,86.19
2022-09-03T12:57:30.119Z,87.11
2022-09-03T13:00:17.357Z,86.53
2022-09-03T13:03:08.820Z,86.94
2022-09-03T13:06:02.192Z,87.35
2022-09-03T13:08:39.437Z,87.19
2022-09-03T13:11:08.868Z,86.79
2022-09-03T13:13:39.676Z,84.50
2022-09-03T13:16:42.210Z,85.78
2022-09-03T13:19:43.358Z,85.47
2022-09-03T13:22:39.950Z,85.84
2022-09-03T13:25:08.563Z,84.99
2022-09-03T13:27:43.503Z,85.07
2022-09-03T13:30:21.667Z,84.72
2022-09-03T13:33:02.947Z,83.77
2022-09-03T13:35:40.260Z,81.63
2022-09-03T13:38:15.598Z,82.73
2022-09-03T13:41:03.132Z,82.73
2022-09-03T13:43:54.136Z,83.59
2022-09-03T13:46:46.376Z,84.29
2022-09-03T13:49:53.769Z,82.58
2022-09-03T13:52:35.866Z,83.02
2022-09-03T13:55:18.622Z,82.56
2022-09-03T13:58:01.493Z,81.58
2022-09-03T14:00:37.152Z,78.58
2022-09-03T14:03:15.765Z,76.69
2022-09-03T14:06:03.193Z,78.92
2022-09-03T14:09:02.599Z,78.89
2022-09-03T14:12:03.027Z,77.72
2022-09-03T14:14:55.074Z,77.59
2022-09-03T14:17:40.761Z,76.74
2022-09-03T14:20:24.279Z,76.06
2022-09-03T14:23:10.984Z,75.09
2022-09-03T14:25:44.886Z,75.18
2022-09-03T14:28:25.514Z,74.70
2022-09-03T14:31:18.862Z,72.00
2022-09-03T14:34:06.150Z,73.98
2022-09-03T14:36:49.919Z,73.91
2022-09-03T14:39:32.505Z,73.73
2022-09-03T14:42:07.530Z,73.60
2022-09-03T14:44:51.375Z,73.43
2022-09-03T14:47:38.081Z,72.84
2022-09-03T14:50:06.666Z,72.56
2022-09-03T14:52:38.429Z,72.58
2022-09-03T14:55:27.788Z,73.34
2022-09-03T14:57:59.129Z,72.43
2022-09-03T15:00:43.496Z,72.89
2022-09-03T15:03:36.653Z,71.97
2022-09-03T15:06:08.204Z,71.84
2022-09-03T15:09:18.539Z,73.03
2022-09-03T15:11:57.976Z,72.41
2022-09-03T15:14:30.273Z,72.88
2022-09-03T15:17:27.147Z,72.32
2022-09-03T15:20:18.208Z,74.58
2022-09-03T15:23:13.429Z,73.79
2022-09-03T15:25:54.618Z,73.53
2022-09-03T15:28:59.346Z,74.18
2022-09-03T15:31:35.046Z,74.66
2022-09-03T15:34:25.695Z,74.77
2022-09-03T15:36:58.707Z,74.90
2022-09-03T15:39:37.444Z,75.77
2022-09-03T15:42:06.603Z,78.38
2022-09-03T15:45:14.915Z,78.02
2022-09-03T15:47:51.838Z,78.15
2022-09-03T15:50:34.396Z,78.13
2022-09-03T15:53:18.144Z,79.12
2022-09-03T15:55:48.488Z,80.99
2022-09-03T15:58:41.524Z,80.74
2022-09-03T16:01:41.886Z,78.98
2022-09-03T16:04:16.266Z,79.54
2022-09-03T16:06:55.788Z,79.36
2022-09-03T16:09:33.401Z,80.03
2022-09-03T16:12:19.193Z,79.43
2022-09-03T16:15:18.292Z,80.01
2022-09-03T16:17:57.799Z,80.93
2022-09-03T16:20:29.549Z,81.10
2022-09-03T16:23:06.053Z,82.89
2022-09-03T16:25:59.509Z,82.48
2022-09-03T16:28:52.346Z,83.61
2022-09-03T16:31:40.221Z,85.37
2022-09-03T16:34:22.207Z,85.82
2022-09-03T16:37:02.771Z,86.04
2022-09-03T16:40:13.702Z,88.08
2022-09-03T16:42:48.417Z,89.20
2022-09-03T16:45:20.496Z,88.27
2022-09-03T16:48:04.890Z,88.17
2022-09-03T16:51:06.520Z,89.59
2022-09-03T16:54:14.551Z,89.78
2022-09-03T16:57:35.837Z,90.21
2022-09-03T17:00:13.009Z,92.39
2022-09-03T17:02:42.551Z,92.94
2022-09-03T17:05:26.546Z,91.89
2022-09-03T17:08:18.749Z,90.94
2022-09-03T17:10:55.816Z,90.55
2022-09-03T17:13:39.466Z,91.14
2022-09-03T17:16:38.817Z,94.54
2022-09-03T17:19:19.384Z,94.20
2022-09-03T17:21:50.694Z,96.48
2022-09-03T17:24:36.983Z,95.76
2022-09-03T17:27:23.996Z,97.47
2022-09-03T17:30:14.288Z,96.94
2022-09-03T17:33:34.793Z,98.86
2022-09-03T17:36:09.790Z,99.19
2022-09-03T17:39:15.780Z,98.12
2022-09-03T17:41:54.770Z,96.91
2022-09-03T17:44:45.101Z,98.79
2022-09-03T17:47:38.259Z,98.21
2022-09-03T17:50:21.282Z,98.62
2022-09-03T17:53:00.149Z,98.83
2022-09-03T17:55:36.676Z,98.69
2022-09-03T17:58:15.100Z,99.98
2022-09-03T18:00:52.787Z,99.31
2022-09-03T18:03:28.126Z,99.49
2022-09-03T18:06:02.241Z,99.47
2022-09-03T18:08:44.781Z,99.75
2022-09-03T18:11:23.468Z,99.04
2022-09-03T18:14:01.372Z,99.49
2022-09-03T18:16:33.534Z,99.40
2022-09-03T18:19:03.048Z,100.00
2022-09-03T18:21:56.817Z,100.00
2022-09-03T18:25:00.730Z,98.86
2022-09-03T18:28:09.557Z,96.67
2022-09-03T18:30:57.269Z,97.84
2022-09-03T18:33:45.961Z,98.88
2022-09-03T18:36:33.159Z,97.63
2022-09-03T18:39:33.479Z,95.91
2022-09-03T18:42:51.734Z,95.81
2022-09-03T18:49:22.708Z,94.86
2022-09-03T18:52:29.482Z,94.50
2022-09-03T18:55:31.034Z,94.66
2022-09-03T18:58:36.379Z,95.78
2022-09-03T19:02:04.067Z,99.14
2022-09-03T19:05:23.522Z,98.24
2022-09-03T19:08:29.482Z,97.44
2022-09-03T19:11:36.780Z,96.46
2022-09-03T19:14:33.618Z,95.97
2022-09-03T19:17:40.808Z,95.88
2022-09-03T19:20:50.102Z,95.68
2022-09-03T19:23:37.159Z,95.41
2022-09-03T19:27:23.554Z,95.69
2022-09-03T19:30:27.799Z,99.97
2022-09-03T19:33:33.347Z,100.00
2022-09-03T19:36:32.229Z,100.00
2022-09-03T19:39:47.162Z,100.00
2022-09-03T19:43:12.002Z,100.00
2022-09-03T19:46:11.641Z,100.00
2022-09-03T19:49:20.341Z,100.00
2022-09-03T19:52:13.392Z,100.00
2022-09-03T19:55:00.713Z,100.00
2022-09-03T19:57:49.989Z,100.00
2022-09-03T20:00:37.818Z,100.00
2022-09-03T20:03:26.163Z,100.00
2022-09-03T20:06:13.874Z,100.00
2022-09-03T20:09:01.829Z,100.00
2022-09-03T20:11:31.496Z,100.00
2022-09-03T20:14:15.867Z,100.00
2022-09-03T20:17:02.388Z,100.00
2022-09-03T20:19:52.668Z,100.00
2022-09-03T20:22:28.817Z,100.00
2022-09-03T20:25:07.438Z,100.00
2022-09-03T20:27:50.728Z,100.00
2022-09-03T20:30:21.765Z,100.00
2022-09-03T20:33:25.794Z,100.00
2022-09-03T20:36:05.393Z,100.00
2022-09-03T20:38:52.817Z,100.00
2022-09-03T20:42:03.292Z,100.00
2022-09-03T20:44:52.986Z,100.00
2022-09-03T20:47:41.748Z,100.00
2022-09-03T20:50:44.597Z,100.00
2022-09-03T20:53:33.807Z,100.00
2022-09-03T20:56:21.713Z,100.00
2022-09-03T20:59:14.121Z,100.00
2022-09-03T21:01:58.711Z,100.00
2022-09-03T21:04:49.303Z,100.00
2022-09-03T21:07:36.014Z,100.00
2022-09-03T21:10:23.854Z,100.00
2022-09-03T21:12:52.539Z,100.00
2022-09-03T21:15:46.248Z,100.00
2022-09-03T21:18:31.607Z,100.00
2022-09-03T21:21:36.016Z,100.00
2022-09-03T21:24:16.673Z,100.00
2022-09-03T21:26:52.228Z,100.00
2022-09-03T21:29:29.507Z,100.00
2022-09-03T21:32:04.237Z,100.00
2022-09-03T21:34:49.207Z,100.00
2022-09-03T21:37:19.435Z,100.00
2022-09-03T21:39:54.699Z,100.00
2022-09-03T21:42:46.403Z,100.00
2022-09-03T21:45:34.524Z,100.00
2022-09-03T21:48:16.175Z,100.00
2022-09-03T21:50:54.042Z,100.00
2022-09-03T21:53:42.677Z,100.00
2022-09-03T21:56:38.293Z,100.00
2022-09-03T21:59:25.748Z,100.00
2022-09-03T22:02:03.493Z,100.00
2022-09-03T22:04:33.230Z,100.00
2022-09-03T22:07:20.036Z,100.00
2022-09-03T22:10:20.236Z,100.00
2022-09-03T22:13:15.291Z,100.00
2022-09-03T22:15:52.181Z,100.00
2022-09-03T22:18:30.009Z,100.00
2022-09-03T22:21:23.985Z,100.00
2022-09-03T22:24:16.318Z,100.00
2022-09-03T22:26:56.102Z,100.00
2022-09-03T22:29:37.190Z,100.00
2022-09-03T22:32:46.787Z,100.00
2022-09-03T22:35:35.793Z,100.00
2022-09-03T22:38:10.202Z,100.00
2022-09-03T22:41:16.514Z,100.00
2022-09-03T22:44:02.983Z,100.00
2022-09-03T22:46:53.398Z,100.00
2022-09-03T22:49:47.168Z,100.00
2022-09-03T22:52:30.903Z,100.00
2022-09-03T22:55:12.034Z,100.00
2022-09-03T22:58:13.850Z,100.00
2022-09-03T23:00:48.723Z,100.00
2022-09-03T23:03:26.622Z,100.00
2022-09-03T23:06:04.174Z,100.00
2022-09-03T23:08:40.634Z,100.00
2022-09-03T23:11:26.383Z,100.00
2022-09-03T23:14:08.672Z,100.00
2022-09-03T23:17:00.979Z,100.00
2022-09-03T23:19:47.689Z,100.00
2022-09-03T23:22:45.440Z,100.00
2022-09-03T23:25:21.391Z,100.00
2022-09-03T23:27:55.901Z,100.00
2022-09-03T23:30:24.790Z,100.00
2022-09-03T23:32:59.032Z,100.00
2022-09-03T23:35:49.748Z,100.00
2022-09-03T23:38:35.259Z,100.00
2022-09-03T23:41:10.339Z,100.00
2022-09-03T23:44:04.478Z,100.00
2022-09-03T23:47:18.548Z,100.00
2022-09-03T23:49:59.564Z,100.00
2022-09-03T23:52:46.152Z,100.00
2022-09-03T23:55:33.574Z,100.00
2022-09-03T23:58:11.264Z,100.00
